Time;durP1;ratioP1;P1;durP2;ratioP2;P2;SDS_P1;SDS_P2;PMS_P1;PMS_P2;Temp;Humidity;BMP_temperature;BMP_pressure;BME280_temperature;BME280_humidity;BME280_pressure;Samples;Min_cycle;Max_cycle;Signal;HPM_P1;HPM_P2
2021/12/20 00:01:38;;;;;;;10.88;5.68;;;;;;;;;;5053623;28;20033;-67
2021/12/20 00:04:04;;;;;;;13.20;5.75;;;;;;;;;;5053804;28;20033;-65
2021/12/20 00:06:31;;;;;;;11.05;5.05;;;;;;;;;;5053678;28;20035;-65
2021/12/20 00:08:57;;;;;;;14.68;5.20;;;;;;;;;;5053477;28;20096;-64
2021/12/20 00:11:23;;;;;;;10.88;4.72;;;;;;;;;;5053480;28;20074;-68
2021/12/20 00:13:49;;;;;;;14.70;6.57;;;;;;;;;;5054167;28;20074;-66
2021/12/20 00:16:15;;;;;;;12.07;6.53;;;;;;;;;;5053717;28;20027;-67
2021/12/20 00:18:44;;;;;;;13.85;6.60;;;;;;;;;;5053806;28;20021;-66
2021/12/20 00:21:11;;;;;;;13.05;6.00;;;;;;;;;;5053074;28;20463;-66
2021/12/20 00:23:37;;;;;;;14.80;6.40;;;;;;;;;;5053329;28;20502;-65
2021/12/20 00:26:03;;;;;;;10.13;5.50;;;;;;;;;;5053339;28;20021;-66
2021/12/20 00:28:30;;;;;;;13.05;6.05;;;;;;;;;;5053232;28;20489;-66
2021/12/20 00:30:56;;;;;;;13.80;7.15;;;;;;;;;;5053583;28;20021;-67
2021/12/20 00:33:22;;;;;;;16.45;8.27;;;;;;;;;;5055839;28;20050;-63
2021/12/20 00:35:49;;;;;;;18.40;9.02;;;;;;;;;;5054689;28;20502;-65
2021/12/20 00:41:01;;;;;;;27.95;12.95;;;;;;;;;;5053943;28;20411;-66
2021/12/20 00:43:27;;;;;;;24.88;12.77;;;;;;;;;;5053566;28;20037;-64
2021/12/20 00:45:53;;;;;;;26.83;11.73;;;;;;;;;;5053471;28;20025;-66
2021/12/20 00:48:19;;;;;;;25.17;11.60;;;;;;;;;;5053460;28;20493;-67
2021/12/20 00:50:46;;;;;;;19.92;10.52;;;;;;;;;;5053583;28;20540;-66
2021/12/20 00:53:13;;;;;;;19.17;9.25;;;;;;;;;;5053305;28;20067;-66
2021/12/20 00:55:39;;;;;;;19.17;8.73;;;;;;;;;;5052977;28;20048;-66
2021/12/20 00:58:08;;;;;;;17.38;8.15;;;;;;;;;;5053239;28;20017;-66
2021/12/20 01:00:36;;;;;;;13.70;7.55;;;;;;;;;;5053288;28;20049;-68
2021/12/20 01:03:04;;;;;;;16.27;7.53;;;;;;;;;;5056982;28;20021;-67
2021/12/20 01:05:30;;;;;;;14.07;5.97;;;;;;;;;;5057320;28;20017;-65
2021/12/20 01:07:59;;;;;;;12.13;5.72;;;;;;;;;;5057092;28;20095;-65
2021/12/20 01:10:28;;;;;;;12.80;6.60;;;;;;;;;;5056928;28;20116;-67
2021/12/20 01:12:55;;;;;;;18.25;6.68;;;;;;;;;;5057446;28;20017;-65
2021/12/20 01:15:23;;;;;;;16.35;7.15;;;;;;;;;;5057359;28;20017;-65
2021/12/20 01:17:50;;;;;;;13.55;6.40;;;;;;;;;;5056858;28;20029;-66
2021/12/20 01:20:17;;;;;;;15.48;6.53;;;;;;;;;;5056793;28;20124;-66
2021/12/20 01:22:47;;;;;;;12.75;5.95;;;;;;;;;;5057312;28;20029;-66
2021/12/20 01:25:14;;;;;;;12.95;5.53;;;;;;;;;;5056397;28;20033;-66
2021/12/20 01:27:40;;;;;;;11.43;5.63;;;;;;;;;;5056904;28;20467;-67
2021/12/20 01:30:08;;;;;;;12.50;5.63;;;;;;;;;;5056586;28;20044;-66
2021/12/20 01:32:37;;;;;;;12.07;5.35;;;;;;;;;;5056464;28;20043;-66
2021/12/20 01:35:04;;;;;;;9.73;4.65;;;;;;;;;;5056744;28;20032;-65
2021/12/20 01:37:30;;;;;;;13.70;5.22;;;;;;;;;;5056339;28;20029;-66
2021/12/20 01:39:58;;;;;;;13.63;5.07;;;;;;;;;;5056623;28;20100;-66
2021/12/20 01:42:25;;;;;;;11.25;4.57;;;;;;;;;;5056851;28;20025;-66
2021/12/20 01:44:56;;;;;;;10.77;4.72;;;;;;;;;;5056138;28;20021;-65
2021/12/20 01:47:22;;;;;;;11.23;4.30;;;;;;;;;;5056358;28;20025;-67
2021/12/20 01:50:06;;;;;;;11.07;4.43;;;;;;;;;;5056517;28;20025;-65
2021/12/20 01:52:40;;;;;;;8.85;4.32;;;;;;;;;;5056084;28;20032;-67
2021/12/20 01:55:11;;;;;;;6.95;3.60;;;;;;;;;;5056535;28;20021;-65
2021/12/20 01:57:37;;;;;;;9.18;4.18;;;;;;;;;;5056493;28;20104;-66
2021/12/20 02:00:09;;;;;;;10.93;4.50;;;;;;;;;;5056034;28;20383;-67
2021/12/20 02:02:36;;;;;;;11.52;5.50;;;;;;;;;;5056275;28;20025;-63
2021/12/20 02:05:14;;;;;;;9.75;4.20;;;;;;;;;;5055758;28;20479;-63
2021/12/20 02:07:52;;;;;;;9.57;3.88;;;;;;;;;;5055852;28;20111;-66
2021/12/20 02:10:19;;;;;;;8.07;4.10;;;;;;;;;;5056366;28;20017;-65
2021/12/20 02:12:46;;;;;;;7.78;4.10;;;;;;;;;;5054776;28;20021;-65
2021/12/20 02:15:12;;;;;;;8.32;3.75;;;;;;;;;;5055957;28;20024;-67
2021/12/20 02:17:39;;;;;;;8.40;3.90;;;;;;;;;;5055961;28;20078;-65
2021/12/20 02:20:06;;;;;;;7.70;3.78;;;;;;;;;;5055622;28;20341;-67
2021/12/20 02:22:32;;;;;;;7.55;3.70;;;;;;;;;;5055848;28;20040;-65
2021/12/20 02:24:58;;;;;;;10.73;5.18;;;;;;;;;;5055829;28;20029;-65
2021/12/20 02:27:24;;;;;;;10.48;4.75;;;;;;;;;;5055531;28;20017;-61
2021/12/20 02:38:26;;;;;;;12.70;6.05;;;;;;;;;;5055602;28;20035;-66
2021/12/20 02:41:00;;;;;;;12.77;5.70;;;;;;;;;;5055256;28;20383;-67
2021/12/20 02:43:29;;;;;;;10.38;5.30;;;;;;;;;;5055423;28;20502;-66
2021/12/20 02:46:02;;;;;;;9.05;4.70;;;;;;;;;;5055125;28;20021;-66
2021/12/20 02:48:28;;;;;;;9.48;4.72;;;;;;;;;;5054875;28;20021;-67
2021/12/20 02:50:55;;;;;;;10.18;4.25;;;;;;;;;;5055105;28;20486;-67
2021/12/20 02:53:21;;;;;;;6.30;3.28;;;;;;;;;;5055129;28;20021;-66
2021/12/20 02:55:47;;;;;;;7.03;3.80;;;;;;;;;;5054611;28;20028;-66
2021/12/20 02:58:14;;;;;;;7.18;3.67;;;;;;;;;;5055256;28;20024;-65
2021/12/20 03:00:40;;;;;;;6.70;3.35;;;;;;;;;;5055316;28;20434;-66
2021/12/20 03:03:08;;;;;;;7.25;3.42;;;;;;;;;;5054774;28;20017;-66
2021/12/20 03:05:34;;;;;;;6.50;2.92;;;;;;;;;;5054741;28;20411;-66
2021/12/20 03:08:01;;;;;;;5.32;2.42;;;;;;;;;;5054735;28;20092;-67
2021/12/20 03:10:29;;;;;;;6.38;2.88;;;;;;;;;;5054712;28;20025;-65
2021/12/20 03:12:56;;;;;;;5.20;2.92;;;;;;;;;;5055117;28;20511;-65
2021/12/20 03:15:25;;;;;;;6.10;2.53;;;;;;;;;;5054821;28;20032;-66
2021/12/20 03:17:54;;;;;;;5.72;2.78;;;;;;;;;;5055103;28;20108;-65
2021/12/20 03:20:21;;;;;;;7.13;2.83;;;;;;;;;;5054424;28;20013;-65
2021/12/20 03:22:48;;;;;;;3.75;2.88;;;;;;;;;;5054077;28;20017;-67
2021/12/20 03:25:14;;;;;;;7.50;3.28;;;;;;;;;;5054246;28;20433;-64
2021/12/20 03:27:40;;;;;;;5.10;2.85;;;;;;;;;;5054567;28;20013;-66
2021/12/20 03:30:09;;;;;;;5.22;2.83;;;;;;;;;;5054013;28;20040;-65
2021/12/20 03:32:35;;;;;;;6.03;3.25;;;;;;;;;;5054598;28;20021;-65
2021/12/20 03:35:01;;;;;;;5.57;3.40;;;;;;;;;;5054445;28;20025;-65
2021/12/20 03:37:27;;;;;;;8.90;4.40;;;;;;;;;;5054080;28;20028;-67
2021/12/20 03:39:53;;;;;;;11.60;4.25;;;;;;;;;;5054402;28;20025;-64
2021/12/20 03:42:20;;;;;;;8.50;4.45;;;;;;;;;;5054589;28;20079;-68
2021/12/20 03:44:46;;;;;;;8.63;5.22;;;;;;;;;;5053917;28;20033;-66
2021/12/20 03:47:13;;;;;;;10.43;5.28;;;;;;;;;;5053985;28;20017;-64
2021/12/20 03:49:42;;;;;;;14.32;5.55;;;;;;;;;;5036073;28;20021;-65
2021/12/20 03:52:09;;;;;;;12.90;6.00;;;;;;;;;;5053633;28;20028;-66
2021/12/20 03:54:36;;;;;;;6.97;3.72;;;;;;;;;;5054110;28;20025;-66
2021/12/20 03:57:03;;;;;;;6.85;3.53;;;;;;;;;;5054129;28;20028;-67
2021/12/20 03:59:29;;;;;;;7.32;3.88;;;;;;;;;;5053442;28;20132;-65
2021/12/20 04:01:56;;;;;;;5.68;3.15;;;;;;;;;;5035382;28;20024;-66
2021/12/20 04:04:22;;;;;;;8.85;4.18;;;;;;;;;;5053392;28;20072;-64
2021/12/20 04:06:49;;;;;;;6.05;3.08;;;;;;;;;;5053898;28;20025;-69
2021/12/20 04:09:15;;;;;;;8.93;3.95;;;;;;;;;;5053850;28;20013;-67
2021/12/20 04:11:41;;;;;;;8.27;4.45;;;;;;;;;;5053305;28;20017;-67
2021/12/20 04:14:07;;;;;;;7.60;4.00;;;;;;;;;;5054033;28;20021;-66
2021/12/20 04:16:36;;;;;;;7.55;3.95;;;;;;;;;;5053743;28;20419;-64
2021/12/20 04:19:02;;;;;;;5.95;4.00;;;;;;;;;;5053393;28;20021;-66
2021/12/20 04:21:30;;;;;;;5.93;3.30;;;;;;;;;;5053647;28;20476;-67
2021/12/20 04:23:56;;;;;;;6.72;3.45;;;;;;;;;;5053953;28;20025;-69
2021/12/20 04:26:23;;;;;;;9.15;4.13;;;;;;;;;;5053500;28;20028;-65
2021/12/20 04:28:49;;;;;;;6.57;3.13;;;;;;;;;;5053039;28;20024;-66
2021/12/20 04:31:15;;;;;;;7.45;3.75;;;;;;;;;;5053231;28;20104;-64
2021/12/20 04:33:42;;;;;;;7.07;4.18;;;;;;;;;;5053104;28;20427;-68
2021/12/20 04:36:08;;;;;;;9.27;4.90;;;;;;;;;;5052994;28;20057;-66
2021/12/20 04:38:34;;;;;;;10.45;4.78;;;;;;;;;;5053635;28;20033;-63
2021/12/20 04:41:01;;;;;;;8.27;4.30;;;;;;;;;;5053068;28;20025;-65
2021/12/20 04:43:27;;;;;;;11.73;5.65;;;;;;;;;;5053083;28;20136;-63
2021/12/20 04:45:53;;;;;;;14.00;6.20;;;;;;;;;;5053390;28;20017;-65
2021/12/20 04:48:20;;;;;;;10.27;4.95;;;;;;;;;;5053015;28;20024;-65
2021/12/20 04:50:46;;;;;;;10.80;4.90;;;;;;;;;;5052984;28;20029;-65
2021/12/20 04:53:12;;;;;;;11.23;5.72;;;;;;;;;;5053598;28;20025;-67
2021/12/20 04:55:38;;;;;;;10.07;4.85;;;;;;;;;;5053015;28;20017;-64
2021/12/20 04:58:05;;;;;;;13.15;5.70;;;;;;;;;;5053266;28;20025;-66
2021/12/20 05:00:33;;;;;;;16.02;7.43;;;;;;;;;;5053326;28;20055;-64
2021/12/20 05:03:00;;;;;;;22.77;9.10;;;;;;;;;;5053120;28;20423;-65
2021/12/20 05:05:28;;;;;;;19.00;7.10;;;;;;;;;;5052766;28;20031;-65
2021/12/20 05:07:55;;;;;;;13.65;5.60;;;;;;;;;;5052838;28;20020;-67
2021/12/20 05:10:31;;;;;;;13.50;6.70;;;;;;;;;;5053131;28;20031;-67
2021/12/20 05:12:59;;;;;;;10.43;5.32;;;;;;;;;;5053136;28;20104;-63
2021/12/20 05:15:26;;;;;;;16.05;7.32;;;;;;;;;;5052866;28;20025;-66
2021/12/20 05:17:52;;;;;;;29.95;11.35;;;;;;;;;;5052707;28;20122;-66
2021/12/20 05:20:19;;;;;;;22.65;8.30;;;;;;;;;;5052974;28;20364;-67
2021/12/20 05:22:45;;;;;;;27.95;11.52;;;;;;;;;;5052673;28;20045;-66
2021/12/20 05:25:11;;;;;;;29.83;11.95;;;;;;;;;;5052880;28;20033;-66
2021/12/20 05:27:38;;;;;;;21.90;9.98;;;;;;;;;;5053034;28;20082;-66
2021/12/20 05:30:05;;;;;;;12.98;6.57;;;;;;;;;;5052591;28;20472;-67
2021/12/20 05:32:31;;;;;;;11.50;5.97;;;;;;;;;;5052614;28;20416;-66
2021/12/20 05:34:57;;;;;;;12.55;6.03;;;;;;;;;;5052644;28;20021;-66
2021/12/20 05:37:23;;;;;;;17.08;7.65;;;;;;;;;;5052273;28;20032;-67
2021/12/20 05:39:49;;;;;;;11.57;6.03;;;;;;;;;;5052852;28;20035;-66
2021/12/20 05:42:16;;;;;;;11.40;6.75;;;;;;;;;;5052866;28;20036;-65
2021/12/20 05:44:42;;;;;;;9.05;4.15;;;;;;;;;;5051944;28;20040;-65
2021/12/20 05:47:08;;;;;;;8.30;4.25;;;;;;;;;;5052946;28;20025;-64
2021/12/20 05:49:34;;;;;;;12.27;5.18;;;;;;;;;;5055913;28;20104;-67
2021/12/20 05:52:03;;;;;;;12.55;4.93;;;;;;;;;;5056412;28;20028;-67
2021/12/20 05:54:30;;;;;;;10.80;5.25;;;;;;;;;;5055557;28;20053;-66
2021/12/20 05:56:56;;;;;;;11.27;5.55;;;;;;;;;;5037441;28;20049;-63
2021/12/20 05:59:22;;;;;;;10.40;5.30;;;;;;;;;;5056008;28;20052;-64
2021/12/20 06:01:48;;;;;;;10.02;5.53;;;;;;;;;;5056126;28;20364;-65
2021/12/20 06:04:14;;;;;;;14.20;6.40;;;;;;;;;;5055855;28;20040;-66
2021/12/20 06:06:41;;;;;;;12.55;6.82;;;;;;;;;;5055933;28;20025;-65
2021/12/20 06:09:07;;;;;;;17.50;8.25;;;;;;;;;;5055759;28;20025;-64
2021/12/20 06:11:33;;;;;;;20.73;10.75;;;;;;;;;;5055652;28;20040;-64
2021/12/20 06:13:59;;;;;;;18.05;9.77;;;;;;;;;;5055321;28;20025;-65
2021/12/20 06:16:26;;;;;;;19.38;9.05;;;;;;;;;;5055858;28;20411;-65
2021/12/20 06:18:53;;;;;;;22.52;9.55;;;;;;;;;;5055027;28;20375;-64
2021/12/20 06:21:19;;;;;;;15.02;7.13;;;;;;;;;;5055865;28;20017;-66
2021/12/20 06:23:45;;;;;;;16.92;7.82;;;;;;;;;;5055936;28;20383;-67
2021/12/20 06:26:12;;;;;;;12.52;6.32;;;;;;;;;;5055183;28;20099;-65
2021/12/20 06:28:38;;;;;;;14.07;6.18;;;;;;;;;;5055245;28;20017;-65
2021/12/20 06:31:05;;;;;;;14.25;6.20;;;;;;;;;;5055680;28;20063;-66
2021/12/20 06:33:31;;;;;;;10.07;6.47;;;;;;;;;;5054602;28;20028;-66
2021/12/20 06:35:57;;;;;;;18.83;8.60;;;;;;;;;;5055085;28;20025;-66
2021/12/20 06:38:23;;;;;;;11.60;7.05;;;;;;;;;;5055397;28;20092;-66
2021/12/20 06:40:51;;;;;;;10.93;6.10;;;;;;;;;;5055578;28;20075;-65
2021/12/20 06:43:17;;;;;;;16.83;6.78;;;;;;;;;;5055348;28;20108;-68
2021/12/20 06:45:44;;;;;;;15.25;6.93;;;;;;;;;;5055176;28;20062;-65
2021/12/20 06:48:10;;;;;;;10.27;6.57;;;;;;;;;;5055428;28;20104;-67
2021/12/20 06:50:36;;;;;;;13.27;6.78;;;;;;;;;;5055182;28;20013;-66
2021/12/20 06:53:02;;;;;;;8.10;4.78;;;;;;;;;;5054836;28;20023;-67
2021/12/20 06:55:28;;;;;;;11.38;5.53;;;;;;;;;;5055062;28;20070;-65
2021/12/20 06:57:55;;;;;;;11.65;5.85;;;;;;;;;;5055313;28;20021;-65
2021/12/20 07:00:23;;;;;;;13.63;6.60;;;;;;;;;;5054732;28;20128;-64
2021/12/20 07:02:49;;;;;;;17.35;7.03;;;;;;;;;;5055299;28;20092;-66
2021/12/20 07:05:15;;;;;;;10.57;5.95;;;;;;;;;;5037125;28;20029;-65
2021/12/20 07:07:42;;;;;;;10.75;5.22;;;;;;;;;;5054641;28;20021;-66
2021/12/20 07:10:08;;;;;;;12.27;5.30;;;;;;;;;;5054911;28;20544;-67
2021/12/20 07:12:36;;;;;;;12.35;5.93;;;;;;;;;;5055120;28;20029;-66
2021/12/20 07:15:03;;;;;;;12.57;6.10;;;;;;;;;;5054431;28;20035;-65
2021/12/20 07:17:30;;;;;;;14.23;6.78;;;;;;;;;;5055038;28;20460;-65
2021/12/20 07:19:58;;;;;;;15.50;6.72;;;;;;;;;;5055006;28;20017;-68
2021/12/20 07:22:24;;;;;;;15.43;6.88;;;;;;;;;;5054240;28;20025;-65
2021/12/20 07:24:51;;;;;;;17.20;7.65;;;;;;;;;;5054836;28;20032;-66
2021/12/20 07:27:20;;;;;;;11.65;6.80;;;;;;;;;;5054744;28;20031;-65
2021/12/20 07:29:46;;;;;;;15.60;7.40;;;;;;;;;;5054972;28;20024;-65
2021/12/20 07:32:13;;;;;;;11.93;5.95;;;;;;;;;;5054518;28;20049;-65
2021/12/20 07:34:39;;;;;;;11.63;5.60;;;;;;;;;;5054655;28;20040;-65
2021/12/20 07:37:06;;;;;;;15.32;6.35;;;;;;;;;;5054495;28;20020;-66
2021/12/20 07:39:33;;;;;;;15.40;6.90;;;;;;;;;;5054858;28;20107;-65
2021/12/20 07:41:59;;;;;;;12.02;6.00;;;;;;;;;;5053900;28;20021;-66
2021/12/20 07:44:26;;;;;;;12.27;5.35;;;;;;;;;;5053443;28;20029;-65
2021/12/20 07:46:52;;;;;;;11.48;6.35;;;;;;;;;;5054313;28;20025;-66
2021/12/20 07:49:18;;;;;;;11.00;5.38;;;;;;;;;;5054098;28;20021;-65
2021/12/20 07:51:45;;;;;;;9.10;5.55;;;;;;;;;;5054384;28;20032;-65
2021/12/20 07:54:11;;;;;;;8.52;4.82;;;;;;;;;;5054665;28;20111;-64
2021/12/20 07:56:37;;;;;;;9.20;5.63;;;;;;;;;;5053928;28;20410;-66
2021/12/20 07:59:03;;;;;;;8.07;5.22;;;;;;;;;;5053269;28;20077;-64
2021/12/20 08:01:33;;;;;;;10.75;5.68;;;;;;;;;;5054748;28;20031;-67
2021/12/20 08:04:00;;;;;;;14.60;6.70;;;;;;;;;;5053907;28;20029;-66
2021/12/20 08:06:26;;;;;;;19.10;9.35;;;;;;;;;;5054086;28;20017;-64
2021/12/20 08:08:52;;;;;;;16.55;7.55;;;;;;;;;;5054019;28;20029;-67
2021/12/20 08:11:25;;;;;;;12.73;6.60;;;;;;;;;;5053015;28;20032;-67
2021/12/20 08:14:00;;;;;;;14.40;6.75;;;;;;;;;;5053595;28;20021;-68
2021/12/20 08:16:32;;;;;;;14.10;7.57;;;;;;;;;;5053658;28;20017;-70
2021/12/20 08:18:58;;;;;;;13.70;7.60;;;;;;;;;;5036017;28;20028;-66
2021/12/20 08:21:24;;;;;;;15.70;7.78;;;;;;;;;;5053809;28;20021;-65
2021/12/20 08:23:50;;;;;;;15.95;7.88;;;;;;;;;;5053482;28;20025;-65
2021/12/20 08:26:17;;;;;;;18.38;8.65;;;;;;;;;;5053557;28;20375;-63
2021/12/20 08:28:44;;;;;;;17.38;8.82;;;;;;;;;;5053773;28;20451;-63
2021/12/20 08:31:10;;;;;;;20.35;8.98;;;;;;;;;;5053418;28;20025;-68
2021/12/20 08:33:37;;;;;;;19.15;8.15;;;;;;;;;;5053395;28;20024;-64
2021/12/20 08:36:04;;;;;;;16.27;8.73;;;;;;;;;;5053577;28;20017;-65
2021/12/20 08:38:31;;;;;;;16.83;7.82;;;;;;;;;;5053318;28;20049;-66
2021/12/20 08:40:58;;;;;;;15.93;8.80;;;;;;;;;;5053408;28;20032;-67
2021/12/20 08:43:24;;;;;;;15.23;8.07;;;;;;;;;;5053416;28;20025;-64
2021/12/20 08:45:51;;;;;;;12.65;6.40;;;;;;;;;;5052919;28;20494;-63
2021/12/20 08:48:17;;;;;;;11.07;5.85;;;;;;;;;;5035682;28;20425;-67
2021/12/20 08:50:43;;;;;;;13.63;6.30;;;;;;;;;;5053879;28;20025;-65
2021/12/20 08:53:13;;;;;;;11.05;5.80;;;;;;;;;;5053093;28;20021;-65
2021/12/20 08:55:39;;;;;;;13.45;6.82;;;;;;;;;;5053425;28;20028;-65
2021/12/20 08:58:06;;;;;;;16.48;6.70;;;;;;;;;;5053399;28;20029;-65
2021/12/20 09:00:34;;;;;;;11.95;6.05;;;;;;;;;;5053372;28;20069;-66
2021/12/20 09:03:00;;;;;;;11.65;6.50;;;;;;;;;;5053343;28;20032;-67
2021/12/20 09:05:27;;;;;;;17.20;8.63;;;;;;;;;;5052708;28;20036;-66
2021/12/20 09:07:55;;;;;;;12.60;7.13;;;;;;;;;;5053162;28;20027;-64
2021/12/20 09:10:21;;;;;;;10.52;5.57;;;;;;;;;;5053120;28;20029;-66
2021/12/20 09:12:48;;;;;;;9.27;4.43;;;;;;;;;;5052034;28;20021;-65
2021/12/20 09:15:16;;;;;;;6.18;3.45;;;;;;;;;;5052256;28;20036;-67
2021/12/20 09:17:46;;;;;;;7.40;3.10;;;;;;;;;;5053237;28;20028;-65
2021/12/20 09:20:13;;;;;;;9.43;4.30;;;;;;;;;;5052624;28;20092;-64
2021/12/20 09:22:50;;;;;;;8.40;3.72;;;;;;;;;;5055636;28;20131;-67
2021/12/20 09:25:19;;;;;;;10.90;5.10;;;;;;;;;;5056889;28;20476;-69
2021/12/20 09:27:46;;;;;;;12.60;5.68;;;;;;;;;;5038925;28;20044;-64
2021/12/20 09:30:13;;;;;;;15.85;6.85;;;;;;;;;;5057194;28;20064;-65
2021/12/20 09:32:39;;;;;;;8.75;4.43;;;;;;;;;;5057735;28;20021;-65
2021/12/20 09:35:05;;;;;;;8.20;4.00;;;;;;;;;;5059010;28;20033;-65
2021/12/20 09:37:32;;;;;;;8.63;4.45;;;;;;;;;;5059421;28;20380;-67
2021/12/20 09:40:00;;;;;;;8.90;4.50;;;;;;;;;;5058909;28;20021;-66
2021/12/20 09:42:26;;;;;;;11.43;5.22;;;;;;;;;;5057883;28;20530;-68
2021/12/20 09:44:53;;;;;;;10.43;5.88;;;;;;;;;;5058382;28;20037;-68
2021/12/20 09:47:20;;;;;;;11.80;5.20;;;;;;;;;;5056191;28;20024;-68
2021/12/20 09:49:46;;;;;;;19.65;6.80;;;;;;;;;;5056664;28;20025;-65
2021/12/20 09:52:12;;;;;;;11.88;5.32;;;;;;;;;;5056859;28;20100;-67
2021/12/20 09:54:39;;;;;;;8.80;4.22;;;;;;;;;;5055935;28;20635;-68
2021/12/20 09:57:08;;;;;;;6.53;3.75;;;;;;;;;;5056303;28;20435;-67
2021/12/20 09:59:36;;;;;;;8.75;4.05;;;;;;;;;;5056662;28;20474;-68
2021/12/20 10:02:05;;;;;;;6.68;3.08;;;;;;;;;;5056365;28;20025;-67
2021/12/20 10:04:31;;;;;;;5.90;2.90;;;;;;;;;;5056228;28;20043;-66
2021/12/20 10:07:00;;;;;;;6.50;3.58;;;;;;;;;;5056013;28;20105;-64
2021/12/20 10:09:30;;;;;;;7.28;3.75;;;;;;;;;;5055741;28;20029;-68
2021/12/20 10:12:11;;;;;;;6.75;2.90;;;;;;;;;;5056294;28;20017;-66
2021/12/20 10:14:37;;;;;;;;;;;;;;;;;;5056335;28;20387;-63
2021/12/20 10:17:05;;;;;;;5.53;3.22;;;;;;;;;;5055603;28;19995;-64
2021/12/20 10:19:34;;;;;;;9.10;5.10;;;;;;;;;;5056221;28;20017;-62
2021/12/20 10:22:02;;;;;;;12.05;6.50;;;;;;;;;;5055818;28;20035;-64
2021/12/20 10:24:35;;;;;;;10.23;3.67;;;;;;;;;;5055668;28;20394;-65
2021/12/20 10:27:02;;;;;;;8.60;4.32;;;;;;;;;;5055790;28;20477;-63
2021/12/20 10:29:28;;;;;;;9.25;4.50;;;;;;;;;;5055635;28;20036;-66
2021/12/20 10:31:54;;;;;;;8.43;3.88;;;;;;;;;;5056073;28;20024;-65
2021/12/20 10:34:35;;;;;;;6.03;3.17;;;;;;;;;;5055057;28;20475;-64
2021/12/20 10:37:03;;;;;;;7.80;3.55;;;;;;;;;;5055550;28;20056;-66
2021/12/20 10:39:37;;;;;;;7.95;3.90;;;;;;;;;;5055755;28;20021;-66
2021/12/20 10:42:16;;;;;;;9.73;5.82;;;;;;;;;;5055407;28;20029;-67
2021/12/20 10:44:43;;;;;;;15.32;5.25;;;;;;;;;;5055399;28;20029;-63
2021/12/20 10:47:23;;;;;;;13.20;5.50;;;;;;;;;;5055696;28;20025;-64
2021/12/20 10:49:50;;;;;;;12.05;5.18;;;;;;;;;;5056082;28;20085;-63
2021/12/20 10:52:25;;;;;;;23.35;8.85;;;;;;;;;;5055279;28;20025;-64
2021/12/20 11:18:16;;;;;;;4.28;2.70;;;;;;;;;;5152123;27;20417;-66
2021/12/20 11:20:42;;;;;;;6.60;2.78;;;;;;;;;;5152327;27;20034;-67
2021/12/20 11:23:11;;;;;;;4.78;2.40;;;;;;;;;;5151882;27;20023;-66
2021/12/20 11:25:37;;;;;;;6.00;2.75;;;;;;;;;;5151944;27;20026;-66
2021/12/20 11:28:04;;;;;;;8.27;3.00;;;;;;;;;;5151096;27;20023;-68
2021/12/20 11:30:30;;;;;;;8.52;2.80;;;;;;;;;;5151671;27;20372;-66
2021/12/20 11:32:56;;;;;;;7.75;2.70;;;;;;;;;;5152392;27;20019;-64
2021/12/20 11:35:23;;;;;;;6.55;3.13;;;;;;;;;;5151819;27;20410;-66
2021/12/20 11:37:49;;;;;;;5.60;2.55;;;;;;;;;;5151785;27;20476;-66
2021/12/20 11:40:17;;;;;;;5.22;2.30;;;;;;;;;;5151800;27;20076;-65
2021/12/20 11:42:46;;;;;;;4.25;2.47;;;;;;;;;;5133007;27;20023;-67
2021/12/20 11:45:15;;;;;;;3.13;2.10;;;;;;;;;;5151447;27;20384;-65
2021/12/20 11:47:41;;;;;;;3.65;2.25;;;;;;;;;;5151747;27;20035;-66
2021/12/20 11:50:13;;;;;;;4.32;2.80;;;;;;;;;;5151568;27;20016;-67
2021/12/20 11:52:40;;;;;;;5.05;2.88;;;;;;;;;;5151887;27;20030;-66
2021/12/20 11:55:25;;;;;;;7.20;3.15;;;;;;;;;;5151498;27;20019;-66
2021/12/20 11:57:58;;;;;;;8.73;3.42;;;;;;;;;;5151443;27;20023;-67
2021/12/20 12:00:33;;;;;;;6.20;3.55;;;;;;;;;;5151327;27;20019;-66
2021/12/20 12:03:19;;;;;;;3.80;2.88;;;;;;;;;;5151328;27;20072;-66
2021/12/20 12:05:53;;;;;;;4.55;2.63;;;;;;;;;;5151481;27;20023;-66
2021/12/20 12:08:22;;;;;;;6.80;3.97;;;;;;;;;;5151539;27;20067;-66
2021/12/20 12:10:48;;;;;;;8.23;3.17;;;;;;;;;;5151185;27;20015;-66
2021/12/20 12:13:16;;;;;;;6.47;3.63;;;;;;;;;;5151497;27;20023;-66
2021/12/20 12:15:53;;;;;;;5.43;3.47;;;;;;;;;;5151187;27;20023;-67
2021/12/20 12:18:19;;;;;;;7.07;3.25;;;;;;;;;;5142396;27;20049;-66
2021/12/20 12:20:47;;;;;;;7.68;3.58;;;;;;;;;;5137493;27;20037;-68
2021/12/20 12:23:18;;;;;;;5.93;3.03;;;;;;;;;;5137034;27;20019;-66
2021/12/20 12:25:49;;;;;;;7.33;3.47;;;;;;;;;;5137517;27;20055;-67
2021/12/20 12:28:15;;;;;;;8.35;3.50;;;;;;;;;;5137127;27;20027;-67
2021/12/20 12:30:43;;;;;;;8.95;4.03;;;;;;;;;;5136806;27;20102;-67
2021/12/20 12:33:15;;;;;;;12.23;4.07;;;;;;;;;;5137158;27;20457;-66
2021/12/20 12:35:47;;;;;;;6.68;2.70;;;;;;;;;;5137063;27;20020;-68
2021/12/20 12:38:14;;;;;;;4.10;2.40;;;;;;;;;;5137030;27;20019;-65
2021/12/20 12:40:41;;;;;;;8.30;3.72;;;;;;;;;;5137466;27;20061;-66
2021/12/20 12:43:07;;;;;;;10.55;3.50;;;;;;;;;;5137153;27;20033;-67
2021/12/20 12:45:49;;;;;;;7.93;3.15;;;;;;;;;;5136715;27;20025;-65
2021/12/20 12:48:14;;;;;;;;;;;;;;;;;;5137810;27;20030;-67
2021/12/20 12:50:41;;;;;;;8.93;3.60;;;;;;;;;;5137496;27;20256;-69
2021/12/20 12:53:27;;;;;;;6.65;3.20;;;;;;;;;;5117731;27;20019;-65
2021/12/20 12:55:55;;;;;;;9.02;3.60;;;;;;;;;;5136816;27;20019;-67
2021/12/20 12:58:23;;;;;;;7.53;3.28;;;;;;;;;;5117520;27;20080;-67
2021/12/20 13:00:56;;;;;;;7.80;3.92;;;;;;;;;;5136704;27;20015;-67
2021/12/20 13:03:23;;;;;;;7.95;3.80;;;;;;;;;;5136510;27;20030;-69
2021/12/20 13:05:50;;;;;;;7.25;3.60;;;;;;;;;;5130802;27;20028;-69
2021/12/20 13:08:17;;;;;;;6.80;3.03;;;;;;;;;;5133294;27;20023;-67
2021/12/20 13:10:51;;;;;;;8.23;3.28;;;;;;;;;;5133047;27;20353;-69
2021/12/20 13:13:25;;;;;;;8.00;3.92;;;;;;;;;;5133533;27;20105;-68
2021/12/20 13:16:01;;;;;;;5.97;2.92;;;;;;;;;;5115014;27;20519;-70
2021/12/20 13:18:39;;;;;;;3.42;2.28;;;;;;;;;;5135842;27;20480;-70
2021/12/20 13:21:08;;;;;;;7.47;3.47;;;;;;;;;;5117422;27;20046;-72
2021/12/20 13:23:35;;;;;;;6.95;3.47;;;;;;;;;;5135865;27;20011;-69
2021/12/20 13:26:11;;;;;;;7.40;3.55;;;;;;;;;;5135451;27;20499;-71
2021/12/20 13:28:41;;;;;;;6.78;3.53;;;;;;;;;;5133964;27;20027;-71
2021/12/20 13:31:10;;;;;;;7.60;4.07;;;;;;;;;;5134798;27;20132;-70
2021/12/20 13:33:37;;;;;;;10.13;3.13;;;;;;;;;;5135064;27;20019;-71
2021/12/20 13:36:07;;;;;;;6.57;3.80;;;;;;;;;;5135739;27;20102;-71
2021/12/20 13:38:38;;;;;;;6.63;4.45;;;;;;;;;;5114710;27;20012;-70
2021/12/20 13:41:11;;;;;;;11.13;4.20;;;;;;;;;;5135601;27;20031;-68
2021/12/20 13:43:48;;;;;;;8.88;4.22;;;;;;;;;;5135249;27;20024;-70
2021/12/20 13:46:23;;;;;;;9.25;3.85;;;;;;;;;;5135348;27;20026;-70
2021/12/20 13:48:52;;;;;;;7.88;3.28;;;;;;;;;;5133185;27;20098;-70
2021/12/20 13:51:19;;;;;;;7.82;3.03;;;;;;;;;;5135773;27;20026;-68
2021/12/20 13:53:45;;;;;;;5.53;2.45;;;;;;;;;;5135733;27;20022;-71
2021/12/20 13:56:12;;;;;;;11.18;4.47;;;;;;;;;;5135072;27;20027;-62
2021/12/20 13:58:45;;;;;;;10.80;4.20;;;;;;;;;;5135628;27;20023;-70
2021/12/20 14:01:11;;;;;;;8.38;3.67;;;;;;;;;;5135178;27;20086;-69
2021/12/20 14:03:38;;;;;;;8.25;3.97;;;;;;;;;;5134925;27;20368;-70
2021/12/20 14:06:04;;;;;;;11.02;4.50;;;;;;;;;;5135713;27;20023;-69
2021/12/20 14:08:31;;;;;;;12.32;5.07;;;;;;;;;;5135142;27;20030;-69
2021/12/20 14:10:57;;;;;;;6.90;3.50;;;;;;;;;;5135661;27;20083;-70
2021/12/20 14:13:27;;;;;;;9.73;3.90;;;;;;;;;;5135018;27;20027;-70
2021/12/20 14:16:00;;;;;;;7.50;3.95;;;;;;;;;;5134794;27;20029;-71
2021/12/20 14:18:36;;;;;;;8.90;4.05;;;;;;;;;;5135435;27;20072;-70
2021/12/20 14:21:06;;;;;;;7.47;2.72;;;;;;;;;;5135542;27;20019;-71
2021/12/20 14:23:34;;;;;;;8.13;3.65;;;;;;;;;;5134881;27;20023;-70
2021/12/20 14:26:16;;;;;;;10.40;4.15;;;;;;;;;;5135111;27;20027;-73
2021/12/20 14:28:47;;;;;;;5.95;3.25;;;;;;;;;;5134779;27;20099;-74
2021/12/20 14:31:25;;;;;;;9.93;4.37;;;;;;;;;;5134793;27;20065;-72
2021/12/20 14:33:55;;;;;;;8.07;3.90;;;;;;;;;;5134983;27;20050;-70
2021/12/20 14:36:22;;;;;;;8.55;4.30;;;;;;;;;;5134352;27;20023;-74
2021/12/20 14:38:55;;;;;;;8.68;3.90;;;;;;;;;;5134046;27;20012;-72
2021/12/20 14:41:30;;;;;;;6.97;3.30;;;;;;;;;;5133225;27;20027;-69
2021/12/20 14:43:59;;;;;;;4.93;3.03;;;;;;;;;;5134553;27;20484;-70
2021/12/20 14:46:37;;;;;;;7.13;3.85;;;;;;;;;;5134671;27;20365;-71
2021/12/20 14:49:17;;;;;;;8.05;3.70;;;;;;;;;;5134401;27;20019;-70
2021/12/20 14:51:43;;;;;;;6.07;3.58;;;;;;;;;;5132882;27;20050;-69
2021/12/20 14:54:11;;;;;;;10.32;4.70;;;;;;;;;;5133837;27;20020;-69
2021/12/20 14:56:47;;;;;;;13.82;6.28;;;;;;;;;;5134085;27;20050;-73
2021/12/20 14:59:13;;;;;;;27.08;7.80;;;;;;;;;;5134288;27;20026;-70
2021/12/20 15:01:40;;;;;;;16.77;5.90;;;;;;;;;;5134709;27;20112;-70
2021/12/20 15:04:06;;;;;;;17.48;7.22;;;;;;;;;;5134637;27;20021;-69
2021/12/20 15:06:59;;;;;;;14.85;5.18;;;;;;;;;;5115340;28;20029;-71
2021/12/20 15:09:27;;;;;;;18.60;7.05;;;;;;;;;;5130825;28;20537;-69
2021/12/20 15:11:53;;;;;;;28.95;12.23;;;;;;;;;;5134176;28;20027;-69
2021/12/20 15:14:20;;;;;;;27.23;10.40;;;;;;;;;;5134259;28;20477;-69
2021/12/20 15:16:48;;;;;;;26.20;11.27;;;;;;;;;;5134366;28;20126;-70